Time;durP1;ratioP1;P1;durP2;ratioP2;P2;SDS_P1;SDS_P2;PMS_P1;PMS_P2;Temp;Humidity;BMP_temperature;BMP_pressure;BME280_temperature;BME280_humidity;BME280_pressure;Samples;Min_cycle;Max_cycle;Signal;HPM_P1;HPM_P2
2022/03/05 00:01:06;;;;;;;;;;;2.10;99.90;;;;;;4174537;28;19928;-53
2022/03/05 00:03:08;;;;;;;;;;;2.10;99.90;;;;;;4162645;28;20003;-53
2022/03/05 00:05:10;;;;;;;;;;;2.00;99.90;;;;;;4167790;28;20286;-53
2022/03/05 00:07:12;;;;;;;;;;;1.80;99.90;;;;;;4173669;28;19928;-52
2022/03/05 00:09:14;;;;;;;;;;;1.80;99.90;;;;;;4175165;28;20024;-53
2022/03/05 00:11:16;;;;;;;;;;;1.70;99.90;;;;;;4173347;28;19930;-53
2022/03/05 00:13:18;;;;;;;;;;;1.70;99.90;;;;;;4177179;28;19929;-53
2022/03/05 00:15:20;;;;;;;;;;;1.50;99.90;;;;;;4175617;28;19929;-52
2022/03/05 00:17:22;;;;;;;;;;;1.40;99.90;;;;;;4174575;28;19937;-53
2022/03/05 00:19:24;;;;;;;;;;;1.40;99.90;;;;;;4175066;28;19924;-53
2022/03/05 00:21:26;;;;;;;;;;;1.40;99.90;;;;;;4176115;28;19929;-53
2022/03/05 00:23:28;;;;;;;;;;;1.40;99.90;;;;;;4174154;28;20301;-54
2022/03/05 00:25:29;;;;;;;;;;;1.50;99.90;;;;;;4167338;28;20317;-53
2022/03/05 00:27:31;;;;;;;;;;;1.50;99.90;;;;;;4176087;28;19925;-53
2022/03/05 00:29:33;;;;;;;;;;;1.60;99.90;;;;;;4176498;28;19929;-53
2022/03/05 00:31:36;;;;;;;;;;;1.80;99.90;;;;;;4173947;28;19935;-53
2022/03/05 00:33:37;;;;;;;;;;;1.90;99.90;;;;;;4174404;28;20419;-53
2022/03/05 00:35:39;;;;;;;;;;;2.30;99.90;;;;;;4175534;28;19936;-51
2022/03/05 00:37:41;;;;;;;;;;;2.30;99.90;;;;;;4160635;28;20368;-52
2022/03/05 00:39:43;;;;;;;;;;;2.30;99.90;;;;;;4170697;28;19929;-53
2022/03/05 00:41:45;;;;;;;;;;;2.30;99.90;;;;;;4167364;28;19925;-52
2022/03/05 00:43:47;;;;;;;;;;;2.30;99.90;;;;;;4167891;28;19929;-53
2022/03/05 00:45:49;;;;;;;;;;;2.60;99.90;;;;;;4160259;28;19929;-53
2022/03/05 00:47:51;;;;;;;;;;;2.80;99.90;;;;;;4173639;28;20415;-53
2022/03/05 00:49:53;;;;;;;;;;;2.90;99.90;;;;;;4175101;28;19930;-53
2022/03/05 00:51:55;;;;;;;;;;;2.80;99.90;;;;;;4177212;28;19954;-54
2022/03/05 00:53:57;;;;;;;;;;;2.80;99.90;;;;;;4163952;28;19953;-53
2022/03/05 00:55:59;;;;;;;;;;;2.90;99.90;;;;;;4176433;28;19929;-53
2022/03/05 00:58:01;;;;;;;;;;;2.90;99.90;;;;;;4178119;28;19951;-54
2022/03/05 01:00:03;;;;;;;;;;;2.90;99.90;;;;;;4178073;28;19931;-53
2022/03/05 01:02:05;;;;;;;;;;;2.80;99.90;;;;;;4175911;28;20036;-53
2022/03/05 01:04:08;;;;;;;;;;;2.80;99.90;;;;;;4176810;28;19979;-54
2022/03/05 01:06:10;;;;;;;;;;;2.80;99.90;;;;;;4178810;28;19929;-53
2022/03/05 01:08:12;;;;;;;;;;;2.70;99.90;;;;;;4176651;28;19975;-52
2022/03/05 01:10:14;;;;;;;;;;;2.70;99.90;;;;;;4179658;28;20452;-52
2022/03/05 01:12:15;;;;;;;;;;;2.60;99.90;;;;;;4177748;28;19976;-53
2022/03/05 01:14:17;;;;;;;;;;;2.60;99.90;;;;;;4176935;28;19936;-54
2022/03/05 01:16:19;;;;;;;;;;;2.90;99.90;;;;;;4176771;28;20373;-53
2022/03/05 01:18:21;;;;;;;;;;;3.00;99.90;;;;;;4177988;28;19940;-53
2022/03/05 01:20:23;;;;;;;;;;;2.80;99.90;;;;;;4165475;28;19929;-53
2022/03/05 01:22:25;;;;;;;;;;;2.80;99.90;;;;;;4173475;28;19928;-53
2022/03/05 01:24:27;;;;;;;;;;;2.90;99.90;;;;;;4176217;28;19967;-53
2022/03/05 01:26:29;;;;;;;;;;;3.00;99.90;;;;;;4179266;28;20355;-54
2022/03/05 01:28:31;;;;;;;;;;;3.00;99.90;;;;;;4164902;28;20344;-54
2022/03/05 01:30:34;;;;;;;;;;;2.80;99.90;;;;;;4169728;28;20706;-54
2022/03/05 01:32:36;;;;;;;;;;;2.80;99.90;;;;;;4165217;28;19933;-52
2022/03/05 01:34:38;;;;;;;;;;;2.90;99.90;;;;;;4170403;28;19925;-53
2022/03/05 01:36:40;;;;;;;;;;;2.80;99.90;;;;;;4176269;28;19928;-52
2022/03/05 01:38:42;;;;;;;;;;;2.80;99.90;;;;;;4171679;28;20304;-52
2022/03/05 01:40:45;;;;;;;;;;;2.80;99.90;;;;;;4176015;28;19928;-53
2022/03/05 01:42:47;;;;;;;;;;;2.90;99.90;;;;;;4178839;28;20453;-52
2022/03/05 01:44:49;;;;;;;;;;;2.80;99.90;;;;;;4175513;28;19925;-52
2022/03/05 01:46:51;;;;;;;;;;;2.70;99.90;;;;;;4172366;28;20336;-53
2022/03/05 01:48:53;;;;;;;;;;;2.70;99.90;;;;;;4164943;28;19978;-53
2022/03/05 01:50:55;;;;;;;;;;;2.80;99.90;;;;;;4173900;28;19951;-53
2022/03/05 01:52:57;;;;;;;;;;;2.90;99.90;;;;;;4166677;28;19967;-53
2022/03/05 01:54:59;;;;;;;;;;;3.00;99.90;;;;;;4176062;28;19924;-53
2022/03/05 01:57:01;;;;;;;;;;;3.00;99.90;;;;;;4174658;28;19925;-53
2022/03/05 01:59:03;;;;;;;;;;;2.90;99.90;;;;;;4175804;28;19924;-53
2022/03/05 02:01:05;;;;;;;;;;;2.80;99.90;;;;;;4176802;28;20019;-53
2022/03/05 02:03:07;;;;;;;;;;;2.80;99.90;;;;;;4169436;28;19929;-53
2022/03/05 02:05:10;;;;;;;;;;;2.80;99.90;;;;;;4167796;28;20184;-53
2022/03/05 02:07:12;;;;;;;;;;;2.70;99.90;;;;;;4166660;28;19979;-53
2022/03/05 02:09:15;;;;;;;;;;;2.70;99.90;;;;;;4170866;28;19929;-52
2022/03/05 02:11:17;;;;;;;;;;;2.80;99.90;;;;;;4172559;28;19924;-53
2022/03/05 02:13:19;;;;;;;;;;;2.90;99.90;;;;;;4175527;28;20061;-53
2022/03/05 02:15:21;;;;;;;;;;;2.90;99.90;;;;;;4176720;28;20315;-53
2022/03/05 02:17:23;;;;;;;;;;;2.90;99.90;;;;;;4175506;28;19978;-53
2022/03/05 02:19:25;;;;;;;;;;;2.80;99.90;;;;;;4176891;28;19928;-52
2022/03/05 02:21:27;;;;;;;;;;;2.70;99.90;;;;;;4176516;28;20022;-52
2022/03/05 02:23:29;;;;;;;;;;;2.70;99.90;;;;;;4177965;28;19928;-53
2022/03/05 02:25:31;;;;;;;;;;;2.70;99.90;;;;;;4171266;28;19929;-53
2022/03/05 02:27:33;;;;;;;;;;;2.80;99.90;;;;;;4175365;28;19925;-53
2022/03/05 02:29:35;;;;;;;;;;;2.80;99.90;;;;;;4165901;28;19936;-53
2022/03/05 02:31:37;;;;;;;;;;;2.80;99.90;;;;;;4165853;28;19967;-54
2022/03/05 02:33:39;;;;;;;;;;;2.70;99.90;;;;;;4162907;28;19929;-54
2022/03/05 02:35:43;;;;;;;;;;;2.70;99.90;;;;;;4174101;28;19929;-53
2022/03/05 02:37:45;;;;;;;;;;;2.80;99.90;;;;;;4171292;28;19929;-52
2022/03/05 02:39:47;;;;;;;;;;;2.70;99.90;;;;;;4162823;28;19975;-52
2022/03/05 02:41:49;;;;;;;;;;;2.60;99.90;;;;;;4177604;28;20728;-52
2022/03/05 02:43:51;;;;;;;;;;;2.60;99.90;;;;;;4173706;28;20381;-52
2022/03/05 02:45:53;;;;;;;;;;;2.60;99.90;;;;;;4175031;28;20376;-53
2022/03/05 02:47:55;;;;;;;;;;;2.60;99.90;;;;;;4171526;28;19935;-53
2022/03/05 02:49:57;;;;;;;;;;;2.60;99.90;;;;;;4177898;28;19950;-54
2022/03/05 02:51:59;;;;;;;;;;;2.60;99.90;;;;;;4174087;28;19928;-53
2022/03/05 02:54:01;;;;;;;;;;;2.50;99.90;;;;;;4176153;28;19936;-53
2022/03/05 02:56:03;;;;;;;;;;;2.40;99.90;;;;;;4176164;28;20386;-53
2022/03/05 02:58:05;;;;;;;;;;;2.50;99.90;;;;;;4177406;28;19929;-52
2022/03/05 03:00:08;;;;;;;;;;;2.60;99.90;;;;;;4169399;28;20031;-53
2022/03/05 03:02:10;;;;;;;;;;;2.60;99.90;;;;;;4164320;28;19955;-53
2022/03/05 03:04:12;;;;;;;;;;;2.50;99.90;;;;;;4169746;28;20580;-52
2022/03/05 03:06:15;;;;;;;;;;;2.50;99.90;;;;;;4175789;28;19929;-54
2022/03/05 03:08:17;;;;;;;;;;;2.30;99.90;;;;;;4173159;28;19978;-52
2022/03/05 03:10:19;;;;;;;;;;;2.40;99.90;;;;;;4174933;28;19925;-53
2022/03/05 03:12:21;;;;;;;;;;;2.40;99.90;;;;;;4176179;28;19924;-53
2022/03/05 03:14:23;;;;;;;;;;;2.40;99.90;;;;;;4161103;28;19932;-53
2022/03/05 03:16:25;;;;;;;;;;;2.40;99.90;;;;;;4174354;28;20377;-52
2022/03/05 03:18:27;;;;;;;;;;;2.50;99.90;;;;;;4173984;28;19929;-53
2022/03/05 03:20:29;;;;;;;;;;;2.60;99.90;;;;;;4174830;28;19925;-53
2022/03/05 03:22:31;;;;;;;;;;;2.50;99.90;;;;;;4177014;28;20352;-53
2022/03/05 03:24:33;;;;;;;;;;;2.40;99.90;;;;;;4190288;28;19925;-53
2022/03/05 03:26:35;;;;;;;;;;;2.30;99.90;;;;;;4174360;28;20287;-53
2022/03/05 03:28:37;;;;;;;;;;;2.30;99.90;;;;;;4172875;28;20139;-53
2022/03/05 03:30:39;;;;;;;;;;;2.10;99.90;;;;;;4161788;28;19925;-54
2022/03/05 03:32:41;;;;;;;;;;;2.10;99.90;;;;;;4166353;28;19967;-54
2022/03/05 03:34:43;;;;;;;;;;;2.10;99.90;;;;;;4163699;28;19929;-54
2022/03/05 03:36:45;;;;;;;;;;;2.10;99.90;;;;;;4174519;28;20649;-53
2022/03/05 03:38:47;;;;;;;;;;;2.10;99.90;;;;;;4176800;28;19925;-52
2022/03/05 03:40:49;;;;;;;;;;;2.10;99.90;;;;;;4175820;28;19925;-53
2022/03/05 03:42:51;;;;;;;;;;;2.20;99.90;;;;;;4172207;28;19968;-52
2022/03/05 03:44:53;;;;;;;;;;;2.20;99.90;;;;;;4175408;28;19928;-53
2022/03/05 03:46:57;;;;;;;;;;;2.20;99.90;;;;;;4176716;28;19929;-53
2022/03/05 03:48:59;;;;;;;;;;;2.20;99.90;;;;;;4161936;28;19929;-54
2022/03/05 03:51:01;;;;;;;;;;;2.20;99.90;;;;;;4170593;28;19967;-53
2022/03/05 03:53:02;;;;;;;;;;;2.10;99.90;;;;;;4174527;28;19929;-53
2022/03/05 03:55:06;;;;;;;;;;;2.10;99.90;;;;;;4167595;28;20386;-52
2022/03/05 03:57:08;;;;;;;;;;;2.20;99.90;;;;;;4174808;28;20479;-52
2022/03/05 03:59:10;;;;;;;;;;;2.20;99.90;;;;;;4174159;28;19929;-52
2022/03/05 04:01:12;;;;;;;;;;;2.10;99.90;;;;;;4174137;28;20593;-53
2022/03/05 04:03:14;;;;;;;;;;;2.10;99.90;;;;;;4176613;28;20332;-53
2022/03/05 04:05:16;;;;;;;;;;;2.10;99.90;;;;;;4175289;28;20003;-53
2022/03/05 04:09:39;;;;;;;;;;;2.10;99.90;;;;;;4176587;28;19932;-52
2022/03/05 04:11:41;;;;;;;;;;;2.20;99.90;;;;;;4164237;28;19929;-53
2022/03/05 04:13:45;;;;;;;;;;;2.10;99.90;;;;;;4160547;28;19925;-53
2022/03/05 04:15:47;;;;;;;;;;;2.10;99.90;;;;;;4174766;28;20401;-53
2022/03/05 04:17:50;;;;;;;;;;;2.00;99.90;;;;;;4171467;28;19929;-52
2022/03/05 04:19:52;;;;;;;;;;;2.00;99.90;;;;;;4175538;28;19952;-53
2022/03/05 04:21:54;;;;;;;;;;;2.00;99.90;;;;;;4177229;28;19994;-52
2022/03/05 04:23:56;;;;;;;;;;;2.00;99.90;;;;;;4174171;28;19935;-53
2022/03/05 04:25:58;;;;;;;;;;;1.90;99.90;;;;;;4178375;28;19991;-54
2022/03/05 04:28:00;;;;;;;;;;;1.90;99.90;;;;;;4178224;28;19939;-52
2022/03/05 04:30:03;;;;;;;;;;;1.90;99.90;;;;;;4170926;28;19936;-53
2022/03/05 04:32:05;;;;;;;;;;;2.00;99.90;;;;;;4176352;28;20032;-53
2022/03/05 04:34:07;;;;;;;;;;;2.00;99.90;;;;;;4178201;28;19928;-53
2022/03/05 04:36:09;;;;;;;;;;;2.20;99.90;;;;;;4176093;28;19948;-53
2022/03/05 04:38:11;;;;;;;;;;;2.10;99.90;;;;;;4179933;28;20507;-53
2022/03/05 04:40:13;;;;;;;;;;;2.00;99.90;;;;;;4177758;28;20576;-52
2022/03/05 04:42:14;;;;;;;;;;;2.00;99.90;;;;;;4172589;28;19960;-53
2022/03/05 04:44:16;;;;;;;;;;;2.00;99.90;;;;;;4168766;28;19929;-53
2022/03/05 04:46:18;;;;;;;;;;;2.00;99.90;;;;;;4174912;28;19972;-53
2022/03/05 04:48:20;;;;;;;;;;;2.00;99.90;;;;;;4177135;28;20415;-52
2022/03/05 04:50:22;;;;;;;;;;;1.90;99.90;;;;;;4178152;28;19935;-53
2022/03/05 04:52:24;;;;;;;;;;;2.00;99.90;;;;;;4178136;28;19933;-53
2022/03/05 04:54:30;;;;;;;;;;;2.10;99.90;;;;;;4179507;28;19951;-53
2022/03/05 04:56:32;;;;;;;;;;;1.90;99.90;;;;;;4179437;28;19947;-53
2022/03/05 04:58:34;;;;;;;;;;;1.80;99.90;;;;;;4170348;28;19929;-53
2022/03/05 05:00:35;;;;;;;;;;;1.80;99.90;;;;;;4169640;28;19928;-52
2022/03/05 05:02:37;;;;;;;;;;;1.80;99.90;;;;;;4179311;28;20000;-52
2022/03/05 05:04:40;;;;;;;;;;;1.90;99.90;;;;;;4178549;28;19931;-53
2022/03/05 05:06:42;;;;;;;;;;;1.80;99.90;;;;;;4178085;28;19939;-52
2022/03/05 05:08:44;;;;;;;;;;;1.80;99.90;;;;;;4176695;28;19932;-52
2022/03/05 05:10:45;;;;;;;;;;;1.70;99.90;;;;;;4176986;28;19925;-52
2022/03/05 05:12:50;;;;;;;;;;;1.70;99.90;;;;;;4178318;28;20328;-52
2022/03/05 05:14:52;;;;;;;;;;;1.60;99.90;;;;;;4177455;28;20019;-52
2022/03/05 05:16:53;;;;;;;;;;;1.50;99.90;;;;;;4176637;28;19928;-53
2022/03/05 05:21:16;;;;;;;;;;;1.40;99.90;;;;;;4167115;28;19929;-52
2022/03/05 05:23:18;;;;;;;;;;;1.50;99.90;;;;;;4177561;28;20023;-52
2022/03/05 05:25:19;;;;;;;;;;;1.40;99.90;;;;;;4177260;28;20400;-53
2022/03/05 05:27:21;;;;;;;;;;;1.20;99.90;;;;;;4174168;28;19929;-52
2022/03/05 05:29:23;;;;;;;;;;;1.20;99.90;;;;;;4179341;28;19987;-52
2022/03/05 05:31:40;;;;;;;;;;;1.20;99.90;;;;;;4178516;28;19933;-53
2022/03/05 05:33:44;;;;;;;;;;;1.30;99.90;;;;;;4169224;28;19983;-53
2022/03/05 05:35:46;;;;;;;;;;;1.20;99.90;;;;;;4166733;28;19963;-53
2022/03/05 05:37:48;;;;;;;;;;;1.10;99.90;;;;;;4165484;28;19925;-53
2022/03/05 05:39:50;;;;;;;;;;;1.10;99.90;;;;;;4175573;28;19929;-52
2022/03/05 05:41:56;;;;;;;;;;;1.00;99.90;;;;;;4174914;28;19929;-51
2022/03/05 05:43:58;;;;;;;;;;;0.90;99.90;;;;;;4170773;28;19925;-54
2022/03/05 05:46:00;;;;;;;;;;;0.90;99.90;;;;;;4175590;28;20471;-53
2022/03/05 05:48:22;;;;;;;;;;;1.10;99.90;;;;;;4162794;28;20028;-53
2022/03/05 05:50:24;;;;;;;;;;;1.20;99.90;;;;;;4176718;28;19935;-54
2022/03/05 05:52:26;;;;;;;;;;;1.10;99.90;;;;;;4172303;28;20215;-53
2022/03/05 05:54:28;;;;;;;;;;;1.20;99.90;;;;;;4166656;28;20309;-53
2022/03/05 05:56:30;;;;;;;;;;;1.30;99.90;;;;;;4167506;28;19932;-53
2022/03/05 05:58:32;;;;;;;;;;;1.40;99.90;;;;;;4176166;28;19925;-53
2022/03/05 06:00:34;;;;;;;;;;;1.30;99.90;;;;;;4177064;28;20046;-52
2022/03/05 06:02:37;;;;;;;;;;;1.30;99.90;;;;;;4173550;28;19967;-52
2022/03/05 06:04:38;;;;;;;;;;;1.30;99.90;;;;;;4178229;28;20032;-51
2022/03/05 06:06:40;;;;;;;;;;;1.50;99.90;;;;;;4177414;28;19933;-51
2022/03/05 06:08:42;;;;;;;;;;;1.50;99.90;;;;;;4165108;28;19925;-54
2022/03/05 06:10:44;;;;;;;;;;;1.40;99.90;;;;;;4164165;28;19945;-53
2022/03/05 06:12:48;;;;;;;;;;;1.50;99.90;;;;;;4168009;28;19925;-53
2022/03/05 06:14:50;;;;;;;;;;;1.40;99.90;;;;;;4178099;28;20527;-53
2022/03/05 06:16:52;;;;;;;;;;;1.40;99.90;;;;;;4175436;28;19960;-52
2022/03/05 06:18:54;;;;;;;;;;;1.50;99.90;;;;;;4175658;28;20378;-53
2022/03/05 06:20:56;;;;;;;;;;;1.50;99.90;;;;;;4177552;28;19925;-53
2022/03/05 06:22:58;;;;;;;;;;;1.60;99.90;;;;;;4176640;28;19980;-53
2022/03/05 06:25:00;;;;;;;;;;;1.60;99.90;;;;;;4176492;28;20424;-53
2022/03/05 06:27:02;;;;;;;;;;;1.70;99.90;;;;;;4175478;28;19954;-47
2022/03/05 06:29:04;;;;;;;;;;;1.80;99.90;;;;;;4162870;28;19929;-47
2022/03/05 06:31:06;;;;;;;;;;;1.80;99.90;;;;;;4169816;28;20393;-48
2022/03/05 06:33:08;;;;;;;;;;;1.70;99.90;;;;;;4176458;28;19929;-48
2022/03/05 06:35:10;;;;;;;;;;;1.70;99.90;;;;;;4168593;28;19924;-47
2022/03/05 06:37:12;;;;;;;;;;;1.70;99.90;;;;;;4173472;28;19925;-47
2022/03/05 06:39:14;;;;;;;;;;;1.70;99.90;;;;;;4177192;28;20447;-46
2022/03/05 06:41:16;;;;;;;;;;;1.70;99.90;;;;;;4172075;28;19925;-46
2022/03/05 06:43:19;;;;;;;;;;;1.80;99.90;;;;;;4167629;28;19975;-49
2022/03/05 06:45:21;;;;;;;;;;;1.80;99.90;;;;;;4176631;28;19929;-49
2022/03/05 06:47:24;;;;;;;;;;;2.00;99.90;;;;;;4169610;28;19967;-47
2022/03/05 06:49:25;;;;;;;;;;;2.00;99.90;;;;;;4174749;28;19965;-48
2022/03/05 06:51:27;;;;;;;;;;;2.10;99.90;;;;;;4177213;28;19983;-46
2022/03/05 06:53:29;;;;;;;;;;;2.20;99.90;;;;;;4170608;28;19951;-49
2022/03/05 06:55:31;;;;;;;;;;;2.10;99.90;;;;;;4177418;28;20432;-47
2022/03/05 06:57:34;;;;;;;;;;;2.20;99.90;;;;;;4176296;28;19928;-49
2022/03/05 06:59:36;;;;;;;;;;;2.20;99.90;;;;;;4176155;28;19932;-46
2022/03/05 07:01:38;;;;;;;;;;;2.30;99.90;;;;;;4176016;28;20393;-47
2022/03/05 07:03:40;;;;;;;;;;;2.30;99.90;;;;;;4164810;28;20031;-47
2022/03/05 07:05:42;;;;;;;;;;;2.40;99.90;;;;;;4166610;28;19925;-47
2022/03/05 07:07:44;;;;;;;;;;;2.50;99.90;;;;;;4168019;28;20377;-47
2022/03/05 07:09:46;;;;;;;;;;;2.50;99.90;;;;;;4177229;28;19959;-46
2022/03/05 07:11:48;;;;;;;;;;;2.50;99.90;;;;;;4176344;28;20308;-48
2022/03/05 07:13:50;;;;;;;;;;;2.50;99.90;;;;;;4176057;28;20293;-48
2022/03/05 07:15:52;;;;;;;;;;;2.60;99.90;;;;;;4175768;28;20547;-48
2022/03/05 07:17:54;;;;;;;;;;;2.60;99.90;;;;;;4175165;28;20031;-47
2022/03/05 07:19:56;;;;;;;;;;;2.70;99.90;;;;;;4177226;28;19956;-50
2022/03/05 07:21:58;;;;;;;;;;;2.70;99.90;;;;;;4174607;28;19929;-47
2022/03/05 07:24:00;;;;;;;;;;;2.70;99.90;;;;;;4174395;28;19979;-51
2022/03/05 07:26:01;;;;;;;;;;;2.80;99.90;;;;;;4175821;28;19929;-46
2022/03/05 07:28:03;;;;;;;;;;;2.90;99.90;;;;;;4176996;28;19951;-47
2022/03/05 07:30:06;;;;;;;;;;;3.00;99.90;;;;;;4175747;28;20429;-47
2022/03/05 07:32:08;;;;;;;;;;;3.10;99.90;;;;;;4176957;28;19928;-46
2022/03/05 07:34:10;;;;;;;;;;;3.30;99.90;;;;;;4162358;28;20384;-47
2022/03/05 07:36:12;;;;;;;;;;;3.30;99.90;;;;;;4177172;28;19933;-48
2022/03/05 07:38:14;;;;;;;;;;;3.30;99.90;;;;;;4175222;28;19960;-49
2022/03/05 07:40:16;;;;;;;;;;;3.30;99.90;;;;;;4167660;28;19929;-47
2022/03/05 07:42:18;;;;;;;;;;;3.40;99.90;;;;;;4166207;28;19929;-49
2022/03/05 07:44:20;;;;;;;;;;;3.50;99.90;;;;;;4175946;28;19978;-47
2022/03/05 07:46:22;;;;;;;;;;;3.70;99.90;;;;;;4172996;28;19933;-46
2022/03/05 07:48:25;;;;;;;;;;;3.60;99.90;;;;;;4169454;28;19986;-46
2022/03/05 07:50:27;;;;;;;;;;;3.60;99.90;;;;;;4173651;28;19983;-49
2022/03/05 07:52:28;;;;;;;;;;;3.50;99.90;;;;;;4173895;28;20055;-47
2022/03/05 07:54:30;;;;;;;;;;;3.60;99.90;;;;;;4175096;28;19963;-49
2022/03/05 07:56:32;;;;;;;;;;;3.60;99.90;;;;;;4171821;28;20351;-46
2022/03/05 07:58:34;;;;;;;;;;;3.50;99.90;;;;;;4162034;28;19924;-47
2022/03/05 08:00:36;;;;;;;;;;;3.50;99.90;;;;;;4175088;28;19925;-47
2022/03/05 08:02:38;;;;;;;;;;;3.50;99.90;;;;;;4174172;28;19929;-47
2022/03/05 08:04:40;;;;;;;;;;;3.60;99.90;;;;;;4166515;28;19925;-47
2022/03/05 08:07:04;;;;;;;;;;;3.60;99.90;;;;;;4178488;28;20484;-49
2022/03/05 08:09:06;;;;;;;;;;;3.80;99.90;;;;;;4176903;28;19929;-48
2022/03/05 08:11:08;;;;;;;;;;;3.90;99.90;;;;;;4162397;28;19952;-48
2022/03/05 08:13:11;;;;;;;;;;;4.10;99.90;;;;;;4173726;28;19924;-46
2022/03/05 08:15:13;;;;;;;;;;;4.10;99.90;;;;;;4173918;28;19929;-48
2022/03/05 08:17:15;;;;;;;;;;;4.00;99.90;;;;;;4162661;28;19925;-49
2022/03/05 08:19:17;;;;;;;;;;;4.00;99.90;;;;;;4168570;28;19925;-49
2022/03/05 08:21:19;;;;;;;;;;;4.00;99.90;;;;;;4170080;28;19955;-46
2022/03/05 08:23:21;;;;;;;;;;;3.90;99.90;;;;;;4167773;28;19951;-48
2022/03/05 08:25:23;;;;;;;;;;;4.00;99.90;;;;;;4174032;28;19933;-50
2022/03/05 08:27:25;;;;;;;;;;;4.10;99.90;;;;;;4174853;28;19925;-47
2022/03/05 08:29:27;;;;;;;;;;;4.20;99.90;;;;;;4174427;28;19971;-48
2022/03/05 08:31:31;;;;;;;;;;;4.30;99.90;;;;;;4173486;28;19975;-49
2022/03/05 08:33:33;;;;;;;;;;;4.00;99.90;;;;;;4161499;28;19964;-47
2022/03/05 08:35:35;;;;;;;;;;;4.20;99.90;;;;;;4176385;28;20400;-48
2022/03/05 08:37:38;;;;;;;;;;;4.20;99.90;;;;;;4173846;28;19928;-47
2022/03/05 08:39:40;;;;;;;;;;;4.20;99.90;;;;;;4174835;28;19929;-47
2022/03/05 08:41:42;;;;;;;;;;;4.40;99.90;;;;;;4170867;28;19956;-47
2022/03/05 08:43:44;;;;;;;;;;;4.40;99.90;;;;;;4175806;28;20040;-47
2022/03/05 08:45:46;;;;;;;;;;;4.40;99.90;;;;;;4174660;28;20225;-48
2022/03/05 08:47:48;;;;;;;;;;;4.50;99.90;;;;;;4174570;28;19935;-48
2022/03/05 08:49:50;;;;;;;;;;;4.30;99.90;;;;;;4173487;28;20291;-48
2022/03/05 08:51:52;;;;;;;;;;;4.40;99.90;;;;;;4163678;28;19929;-47
2022/03/05 08:53:54;;;;;;;;;;;4.60;99.90;;;;;;4168899;28;19971;-47
2022/03/05 08:55:56;;;;;;;;;;;4.60;99.90;;;;;;4166216;28;19936;-50
2022/03/05 08:57:58;;;;;;;;;;;4.60;99.90;;;;;;4174947;28;19972;-48
2022/03/05 09:00:00;;;;;;;;;;;4.60;99.90;;;;;;4175570;28;20403;-51
2022/03/05 09:02:02;;;;;;;;;;;4.90;99.90;;;;;;4171347;28;19970;-49
2022/03/05 09:04:05;;;;;;;;;;;4.80;99.90;;;;;;4174267;28;19925;-47
2022/03/05 09:06:07;;;;;;;;;;;4.80;99.90;;;;;;4175336;28;19940;-50
2022/03/05 09:08:09;;;;;;;;;;;4.90;99.90;;;;;;4172864;28;19929;-48
2022/03/05 09:10:11;;;;;;;;;;;5.20;99.90;;;;;;4168858;28;20003;-47
2022/03/05 09:12:13;;;;;;;;;;;5.30;99.90;;;;;;4168553;28;19928;-50
2022/03/05 09:14:15;;;;;;;;;;;5.30;99.90;;;;;;4176625;28;19929;-48
2022/03/05 09:16:17;;;;;;;;;;;5.00;99.90;;;;;;4179458;28;20389;-49
2022/03/05 09:18:19;;;;;;;;;;;4.70;99.90;;;;;;4176383;28;20660;-51
2022/03/05 09:20:21;;;;;;;;;;;4.80;99.90;;;;;;4172615;28;19932;-50
2022/03/05 09:22:23;;;;;;;;;;;4.80;99.90;;;;;;4165045;28;19967;-46
2022/03/05 09:24:25;;;;;;;;;;;4.80;99.90;;;;;;4178112;28;19960;-48
2022/03/05 09:26:27;;;;;;;;;;;5.00;99.90;;;;;;4174487;28;20434;-50
2022/03/05 09:28:29;;;;;;;;;;;5.30;99.90;;;;;;4172313;28;20462;-50
2022/03/05 09:30:31;;;;;;;;;;;5.00;99.90;;;;;;4174514;28;19965;-50
2022/03/05 09:32:33;;;;;;;;;;;5.30;99.90;;;;;;4174036;28;19970;-48
2022/03/05 09:34:35;;;;;;;;;;;5.60;99.90;;;;;;4176459;28;19932;-47
2022/03/05 09:36:37;;;;;;;;;;;5.50;99.20;;;;;;4174877;28;19928;-51
2022/03/05 09:38:39;;;;;;;;;;;5.50;99.90;;;;;;4177753;28;19979;-50
2022/03/05 09:40:41;;;;;;;;;;;5.80;99.70;;;;;;4177936;28;20290;-50
2022/03/05 09:42:44;;;;;;;;;;;5.60;99.70;;;;;;4175050;28;19963;-50
2022/03/05 09:44:46;;;;;;;;;;;5.40;99.90;;;;;;4175958;28;19940;-50
2022/03/05 09:46:48;;;;;;;;;;;5.40;99.90;;;;;;4177465;28;19932;-51
2022/03/05 09:48:52;;;;;;;;;;;5.60;99.90;;;;;;4178494;28;19929;-51
2022/03/05 09:50:54;;;;;;;;;;;5.40;98.30;;;;;;4176176;28;19929;-50
2022/03/05 09:52:56;;;;;;;;;;;5.40;99.50;;;;;;4176803;28;19924;-50
2022/03/05 09:54:58;;;;;;;;;;;5.30;99.10;;;;;;4176026;28;19925;-48
2022/03/05 09:57:00;;;;;;;;;;;5.10;99.70;;;;;;4179182;28;19963;-47
2022/03/05 09:59:02;;;;;;;;;;;5.10;99.10;;;;;;4175579;28;19972;-49
2022/03/05 10:01:04;;;;;;;;;;;5.30;99.00;;;;;;4173569;28;19976;-50
2022/03/05 10:03:07;;;;;;;;;;;5.60;99.60;;;;;;4165117;28;19928;-49
2022/03/05 10:05:12;;;;;;;;;;;5.20;99.20;;;;;;4167893;28;20381;-49
2022/03/05 10:07:17;;;;;;;;;;;5.40;98.40;;;;;;4175898;28;19972;-52
2022/03/05 10:09:20;;;;;;;;;;;5.30;96.40;;;;;;4174014;28;19956;-50
2022/03/05 10:11:23;;;;;;;;;;;5.30;99.10;;;;;;4166590;28;19971;-48
2022/03/05 10:13:28;;;;;;;;;;;5.40;97.10;;;;;;4172160;28;19929;-48
2022/03/05 10:15:30;;;;;;;;;;;5.20;98.00;;;;;;4170113;28;19952;-49
2022/03/05 10:17:51;;;;;;;;;;;5.00;98.50;;;;;;4168134;28;19991;-50
2022/03/05 10:20:04;;;;;;;;;;;5.00;99.10;;;;;;4164963;28;19936;-49
2022/03/05 10:22:08;;;;;;;;;;;5.30;99.60;;;;;;4162746;28;20148;-49
2022/03/05 10:24:10;;;;;;;;;;;5.50;98.70;;;;;;4162877;28;19929;-50
2022/03/05 10:26:48;;;;;;;;;;;5.50;98.20;;;;;;4167884;28;19925;-50
2022/03/05 10:28:50;;;;;;;;;;;5.70;98.90;;;;;;4163895;28;19976;-48
2022/03/05 10:30:51;;;;;;;;;;;5.60;98.90;;;;;;4165731;28;20457;-48
2022/03/05 10:32:53;;;;;;;;;;;5.60;98.00;;;;;;4164922;28;19925;-51
2022/03/05 10:34:55;;;;;;;;;;;5.40;97.90;;;;;;4163279;28;19929;-51
2022/03/05 10:36:59;;;;;;;;;;;5.40;98.90;;;;;;4168254;28;19929;-51
2022/03/05 10:39:04;;;;;;;;;;;5.30;98.50;;;;;;4172492;28;19928;-50
2022/03/05 10:41:06;;;;;;;;;;;5.40;99.20;;;;;;4164844;28;19983;-50
2022/03/05 10:43:08;;;;;;;;;;;5.40;99.40;;;;;;4163027;28;20389;-48
2022/03/05 10:45:18;;;;;;;;;;;5.60;99.90;;;;;;4172621;28;20398;-49
2022/03/05 10:47:22;;;;;;;;;;;5.20;97.60;;;;;;4162133;28;20406;-51
2022/03/05 10:49:33;;;;;;;;;;;5.10;99.20;;;;;;4170146;28;20016;-50
2022/03/05 10:51:36;;;;;;;;;;;5.00;98.50;;;;;;4175073;28;19929;-50
2022/03/05 10:53:47;;;;;;;;;;;4.80;99.10;;;;;;4164871;28;19954;-49
2022/03/05 10:55:48;;;;;;;;;;;4.90;98.90;;;;;;4167475;28;19940;-50
2022/03/05 10:58:01;;;;;;;;;;;5.10;99.00;;;;;;4164354;28;20156;-50
2022/03/05 11:00:07;;;;;;;;;;;5.10;98.70;;;;;;4162180;28;20011;-49
2022/03/05 11:02:13;;;;;;;;;;;5.30;99.00;;;;;;4172267;28;19932;-50
2022/03/05 11:04:15;;;;;;;;;;;5.50;99.20;;;;;;4159307;28;20333;-51
2022/03/05 11:06:18;;;;;;;;;;;5.80;99.80;;;;;;4162865;28;19983;-49
2022/03/05 11:08:20;;;;;;;;;;;6.00;98.80;;;;;;4167905;28;19948;-49
2022/03/05 11:10:27;;;;;;;;;;;5.80;97.30;;;;;;4167119;28;20913;-50
2022/03/05 11:12:29;;;;;;;;;;;5.70;98.20;;;;;;4161143;28;19924;-50
2022/03/05 11:14:31;;;;;;;;;;;5.60;97.60;;;;;;4158322;28;19929;-50
2022/03/05 11:16:33;;;;;;;;;;;5.30;97.30;;;;;;4166649;28;19933;-48
2022/03/05 11:18:39;;;;;;;;;;;5.40;98.40;;;;;;4165281;28;19967;-51
2022/03/05 11:20:42;;;;;;;;;;;5.80;98.70;;;;;;4159026;28;20166;-48
2022/03/05 11:22:49;;;;;;;;;;;5.70;97.30;;;;;;4173036;28;19941;-49
2022/03/05 11:24:51;;;;;;;;;;;5.60;97.90;;;;;;4165361;28;19936;-51
2022/03/05 11:26:55;;;;;;;;;;;5.50;97.30;;;;;;4168467;28;19925;-48
2022/03/05 11:29:02;;;;;;;;;;;5.60;98.60;;;;;;4160819;28;20008;-49
2022/03/05 11:31:23;;;;;;;;;;;5.80;97.90;;;;;;4167119;28;19945;-48
2022/03/05 11:33:45;;;;;;;;;;;6.00;97.70;;;;;;4162753;28;19925;-49
2022/03/05 11:35:48;;;;;;;;;;;5.90;97.90;;;;;;4176590;28;20023;-50
2022/03/05 11:37:50;;;;;;;;;;;5.60;97.70;;;;;;4171363;28;19925;-48
2022/03/05 11:39:53;;;;;;;;;;;5.80;98.80;;;;;;4170781;28;19925;-52
2022/03/05 11:41:57;;;;;;;;;;;6.00;97.40;;;;;;4163140;28;19925;-50
2022/03/05 11:44:12;;;;;;;;;;;6.00;97.50;;;;;;4170826;28;20028;-49
2022/03/05 11:46:22;;;;;;;;;;;5.90;98.30;;;;;;4162951;28;20035;-50
2022/03/05 11:48:27;;;;;;;;;;;5.80;97.80;;;;;;4176073;28;20359;-51
2022/03/05 11:50:31;;;;;;;;;;;6.20;98.10;;;;;;4161441;28;19933;-50
2022/03/05 11:52:39;;;;;;;;;;;5.90;97.20;;;;;;4167330;28;20032;-48
2022/03/05 11:54:41;;;;;;;;;;;5.60;97.40;;;;;;4160397;28;20391;-49
2022/03/05 11:57:01;;;;;;;;;;;5.80;97.70;;;;;;4173379;28;19924;-50
2022/03/05 11:59:27;;;;;;;;;;;6.00;97.40;;;;;;4160929;28;20668;-49
2022/03/05 12:01:38;;;;;;;;;;;6.00;97.10;;;;;;4176085;28;19925;-48
2022/03/05 12:03:42;;;;;;;;;;;6.20;97.50;;;;;;4167244;28;20179;-46
2022/03/05 12:05:46;;;;;;;;;;;6.10;97.40;;;;;;4167546;28;19976;-50
2022/03/05 12:07:48;;;;;;;;;;;5.90;96.80;;;;;;4167376;28;19992;-48
2022/03/05 12:09:54;;;;;;;;;;;5.90;96.90;;;;;;4163178;28;20043;-48
2022/03/05 12:11:56;;;;;;;;;;;5.90;96.90;;;;;;4169437;28;19952;-50